CheckWX is a tool to help pilots better visualize weather data.  It is not intended as a substitute for an official pre-flight weather briefing.

04:56:55 UTC

EIDW METAR
Dublin Airport
Dublin, Ireland
Current

27 mins ago

EIDW 260430Z 26005KT 9999 FEW010 SCT017 10/09 Q1018 NOSIG
Observed
Aug-26 @ 04:30 UTC
Wind
  • 260° at 5 KTS
Visibility
10,000+ meters
Flight Rules
VFR
Cloud Levels
  • Few at 1,000' AGL
  • Scattered at 1,700' AGL
Temperature
10°C / 50°F
Dewpoint
C / 48°F
Humidity
94%
Altimeter
30.06" Hg
Pressure
1017.92 hPa
Previous

57 mins ago

EIDW 260400Z 26005KT 9999 FEW010 SCT017 11/10 Q1018 NOSIG
Observed
Aug-26 @ 04:00 UTC
Wind
  • 260° at 5 KTS
Visibility
10,000+ meters
Flight Rules
VFR
Cloud Levels
  • Few at 1,000' AGL
  • Scattered at 1,700' AGL
Temperature
11°C / 52°F
Dewpoint
10°C / 50°F
Humidity
94%
Altimeter
30.06" Hg
Pressure
1017.92 hPa
Previous

1 hour ago

EIDW 260330Z 25005KT 9999 FEW010 SCT017 12/11 Q1019 NOSIG
Observed
Aug-26 @ 03:30 UTC
Wind
  • 250° at 5 KTS
Visibility
10,000+ meters
Flight Rules
VFR
Cloud Levels
  • Few at 1,000' AGL
  • Scattered at 1,700' AGL
Temperature
12°C / 54°F
Dewpoint
11°C / 52°F
Humidity
94%
Altimeter
30.09" Hg
Pressure
1018.92 hPa